Time;durP1;ratioP1;P1;durP2;ratioP2;P2;SDS_P1;SDS_P2;PMS_P1;PMS_P2;Temp;Humidity;BMP_temperature;BMP_pressure;BME280_temperature;BME280_humidity;BME280_pressure;Samples;Min_cycle;Max_cycle;Signal;HPM_P1;HPM_P2
2022/12/28 00:01:22;;;;;;;3.50;3.20;;;5.30;99.90;;;;;;5056816;28;20468;-80
2022/12/28 00:03:52;;;;;;;3.30;3.03;;;5.30;1.00;;;;;;5056582;28;20459;-82
2022/12/28 00:06:22;;;;;;;3.70;2.90;;;5.30;99.90;;;;;;5057448;28;20486;-84
2022/12/28 00:08:53;;;;;;;3.30;3.00;;;5.30;99.90;;;;;;5057794;28;20438;-83
2022/12/28 00:11:23;;;;;;;3.40;3.10;;;5.30;39.50;;;;;;5053008;28;21030;-83
2022/12/28 00:14:00;;;;;;;3.27;2.97;;;5.30;89.80;;;;;;5049674;28;20454;-78
2022/12/28 00:16:30;;;;;;;4.17;2.90;;;5.20;99.90;;;;;;5053367;28;20467;-83
2022/12/28 00:19:02;;;;;;;4.37;3.13;;;5.40;99.90;;;;;;5051928;28;20532;-84
2022/12/28 00:21:31;;;;;;;3.53;3.08;;;5.40;99.90;;;;;;5041682;28;20568;-84
2022/12/28 00:24:00;;;;;;;3.13;2.83;;;5.40;99.90;;;;;;5054590;28;20611;-84
2022/12/28 00:26:30;;;;;;;3.27;2.97;;;5.30;99.90;;;;;;5048389;28;20458;-85
2022/12/28 00:28:59;;;;;;;3.20;3.00;;;5.40;99.90;;;;;;5050176;28;20443;-83
2022/12/28 00:31:33;;;;;;;3.40;3.10;;;5.30;99.90;;;;;;5053933;28;20485;-82
2022/12/28 00:34:03;;;;;;;4.10;2.80;;;5.30;99.90;;;;;;5055361;28;21182;-82
2022/12/28 00:36:32;;;;;;;3.27;2.97;;;5.40;1.00;;;;;;5051065;28;20463;-83
2022/12/28 00:39:20;;;;;;;4.13;2.87;;;5.30;99.90;;;;;;5058251;28;20475;-83
2022/12/28 00:41:49;;;;;;;3.43;3.13;;;5.20;1.00;;;;;;5055262;28;20542;-81
2022/12/28 00:44:17;;;;;;;3.80;2.80;;;5.20;1.00;;;;;;5053900;28;21977;-83
2022/12/28 00:46:45;;;;;;;3.30;3.00;;;5.20;99.90;;;;;;5046590;28;20474;-82
2022/12/28 00:49:15;;;;;;;3.70;2.67;;;5.20;1.00;;;;;;5050129;28;20542;-81
2022/12/28 00:51:43;;;;;;;2.93;2.73;;;5.40;1.00;;;;;;5049518;28;20480;-83
2022/12/28 00:54:11;;;;;;;4.50;2.60;;;5.30;99.90;;;;;;5044779;28;20448;-83
2022/12/28 00:56:41;;;;;;;4.43;3.00;;;5.30;99.90;;;;;;5052840;28;20479;-84
2022/12/28 00:59:10;;;;;;;3.20;3.00;;;5.20;1.00;;;;;;5054541;28;20447;-81
2022/12/28 01:01:38;;;;;;;3.20;2.43;;;5.10;99.90;;;;;;5054362;28;20468;-83
2022/12/28 01:04:06;;;;;;;3.87;3.13;;;5.10;1.00;;;;;;5051628;28;20470;-81
2022/12/28 01:06:36;;;;;;;2.30;2.10;;;5.10;99.90;;;;;;5044038;28;20485;-83
2022/12/28 01:09:04;;;;;;;2.77;2.20;;;5.20;1.00;;;;;;5052089;28;20953;-83
2022/12/28 01:11:33;;;;;;;3.20;2.90;;;5.20;99.90;;;;;;5057587;28;20471;-82
2022/12/28 01:14:02;;;;;;;3.10;2.70;;;5.30;99.90;;;;;;5060949;28;20447;-81
2022/12/28 01:16:33;;;;;;;2.77;2.50;;;5.20;99.90;;;;;;5056353;28;20529;-83
2022/12/28 01:19:03;;;;;;;3.40;3.13;;;5.30;99.90;;;;;;5058908;28;20948;-84
2022/12/28 01:21:33;;;;;;;3.07;2.87;;;5.40;99.90;;;;;;5054261;28;20854;-82
2022/12/28 01:24:04;;;;;;;2.60;2.40;;;5.30;99.90;;;;;;5056521;28;20482;-83
2022/12/28 01:26:32;;;;;;;2.10;2.00;;;5.30;99.90;;;;;;5054627;28;20471;-84
2022/12/28 01:29:01;;;;;;;2.50;2.30;;;5.30;99.90;;;;;;5057009;28;20458;-84
2022/12/28 01:31:29;;;;;;;3.43;2.23;;;5.20;99.90;;;;;;5054271;28;20996;-83
2022/12/28 01:33:57;;;;;;;2.15;1.95;;;5.30;99.90;;;;;;5058788;28;20470;-82
2022/12/28 01:36:27;;;;;;;4.23;1.90;;;5.30;99.90;;;;;;5056614;28;20193;-84
2022/12/28 01:38:57;;;;;;;2.47;2.27;;;5.40;99.90;;;;;;5051166;28;20482;-82
2022/12/28 01:41:28;;;;;;;3.45;1.90;;;5.30;99.90;;;;;;5051815;28;20839;-83
2022/12/28 01:44:37;;;;;;;3.03;2.15;;;5.30;99.90;;;;;;5054513;28;20634;-83
2022/12/28 01:47:09;;;;;;;2.00;1.80;;;5.40;99.90;;;;;;5055414;28;20213;-82
2022/12/28 01:49:41;;;;;;;2.72;2.50;;;5.30;99.90;;;;;;5056440;28;20440;-81
2022/12/28 01:52:14;;;;;;;3.17;2.00;;;5.40;99.90;;;;;;5053512;28;20200;-83
2022/12/28 01:54:46;;;;;;;3.00;1.98;;;5.50;99.90;;;;;;5053194;28;20243;-82
2022/12/28 01:57:17;;;;;;;2.20;2.05;;;5.40;99.90;;;;;;5056282;28;20284;-82
2022/12/28 01:59:50;;;;;;;1.73;1.63;;;5.40;99.90;;;;;;5055933;28;20542;-81
2022/12/28 02:02:19;;;;;;;2.33;2.15;;;5.50;99.90;;;;;;5051030;28;20202;-83
2022/12/28 02:04:49;;;;;;;3.80;1.88;;;5.40;99.90;;;;;;5055688;28;20289;-82
2022/12/28 02:07:26;;;;;;;2.65;1.50;;;5.50;99.90;;;;;;5043178;28;20664;-82
2022/12/28 02:09:55;;;;;;;2.20;1.63;;;5.60;73.40;;;;;;5053121;28;20974;-84
2022/12/28 02:12:45;;;;;;;2.10;1.40;;;5.70;37.30;;;;;;5053240;28;20467;-80
2022/12/28 02:15:14;;;;;;;1.80;1.70;;;5.60;41.50;;;;;;5054497;28;20485;-82
2022/12/28 02:17:50;;;;;;;1.88;1.38;;;5.70;35.20;;;;;;5056960;28;20200;-82
2022/12/28 02:20:18;;;;;;;2.65;1.80;;;5.70;1.00;;;;;;5053682;28;20693;-83
2022/12/28 02:23:12;;;;;;;1.70;1.60;;;5.70;79.30;;;;;;5052713;28;20194;-83
2022/12/28 02:26:03;;;;;;;2.15;1.73;;;5.80;1.00;;;;;;5051881;28;20201;-83
2022/12/28 02:29:03;;;;;;;2.30;1.30;;;5.70;1.00;;;;;;5057661;28;20202;-83
2022/12/28 02:31:36;;;;;;;2.13;1.60;;;5.80;13.20;;;;;;5056979;28;20509;-83
2022/12/28 02:34:14;;;;;;;1.50;1.40;;;5.70;93.70;;;;;;5061620;28;20534;-83
2022/12/28 02:36:48;;;;;;;3.30;1.50;;;5.70;95.60;;;;;;5058904;28;20189;-82
2022/12/28 02:39:21;;;;;;;1.77;1.58;;;5.70;1.00;;;;;;5054235;28;20534;-81
2022/12/28 02:41:51;;;;;;;2.35;1.52;;;5.70;82.20;;;;;;5059696;28;20287;-83
2022/12/28 02:50:08;;;;;;;1.55;1.45;;;5.60;99.90;;;;;;5043678;28;20480;-84
2022/12/28 02:53:05;;;;;;;2.95;1.65;;;5.70;99.90;;;;;;5057809;28;20297;-82
2022/12/28 02:56:09;;;;;;;3.50;1.58;;;5.70;99.90;;;;;;5056937;28;20190;-82
2022/12/28 02:59:06;;;;;;;2.33;1.38;;;5.70;99.90;;;;;;5049203;28;20207;-83
2022/12/28 03:01:51;;;;;;;1.60;1.50;;;5.70;99.90;;;;;;5053902;28;20230;-83
2022/12/28 03:04:28;;;;;;;1.25;1.23;;;5.70;99.90;;;;;;5047600;28;20668;-83
2022/12/28 03:09:52;;;;;;;1.35;1.25;;;5.70;99.90;;;;;;5051153;28;20279;-85
2022/12/28 03:12:27;;;;;;;2.30;1.50;;;5.80;99.90;;;;;;5054428;28;20235;-83
2022/12/28 03:15:02;;;;;;;1.80;1.70;;;5.60;99.90;;;;;;5050600;28;20514;-84
2022/12/28 03:31:37;;;;;;;1.63;1.50;;;5.90;99.90;;;;;;5058825;28;21012;-83
2022/12/28 03:34:07;;;;;;;1.50;1.40;;;5.90;94.20;;;;;;5055536;28;20207;-83
2022/12/28 03:36:47;;;;;;;3.60;1.80;;;5.90;79.80;;;;;;5059352;28;20451;-83
2022/12/28 03:39:25;;;;;;;1.88;1.67;;;5.80;99.90;;;;;;5053311;28;20463;-83
2022/12/28 03:44:52;;;;;;;2.13;1.80;;;5.70;99.90;;;;;;5057512;28;20533;-82
2022/12/28 03:47:23;;;;;;;1.70;1.40;;;5.70;99.90;;;;;;5056158;28;20569;-83
2022/12/28 03:49:53;;;;;;;2.03;1.40;;;5.80;99.90;;;;;;5058501;28;20204;-83
2022/12/28 03:52:22;;;;;;;3.33;1.55;;;5.80;99.90;;;;;;5056569;28;20647;-84
2022/12/28 03:54:50;;;;;;;1.42;1.33;;;5.70;99.90;;;;;;5057266;28;20192;-84
2022/12/28 03:57:18;;;;;;;1.70;1.60;;;5.70;1.00;;;;;;5053037;28;20182;-82
2022/12/28 03:59:46;;;;;;;3.20;1.65;;;5.80;99.90;;;;;;5058541;28;20933;-83
2022/12/28 04:02:14;;;;;;;1.30;1.20;;;5.90;99.90;;;;;;5055099;28;20212;-83
2022/12/28 04:04:43;;;;;;;1.53;1.43;;;5.90;66.90;;;;;;5056233;28;20197;-83
2022/12/28 04:07:12;;;;;;;4.53;1.57;;;5.90;99.90;;;;;;5063024;28;20512;-84
2022/12/28 04:09:40;;;;;;;1.90;1.50;;;5.90;99.90;;;;;;5059530;28;20452;-84
2022/12/28 04:12:11;;;;;;;1.90;1.80;;;5.70;99.90;;;;;;5055536;28;20197;-84
2022/12/28 04:14:39;;;;;;;1.55;1.30;;;5.90;99.90;;;;;;5054109;28;20212;-84
2022/12/28 04:17:07;;;;;;;2.20;1.38;;;5.90;99.90;;;;;;5057821;28;20204;-83
2022/12/28 04:19:35;;;;;;;1.95;1.58;;;5.80;99.90;;;;;;5057032;28;20197;-82
2022/12/28 04:22:03;;;;;;;1.50;1.40;;;5.90;99.90;;;;;;5061244;28;20220;-83
2022/12/28 04:24:33;;;;;;;1.65;1.55;;;5.80;1.00;;;;;;5056088;28;20197;-81
2022/12/28 04:27:01;;;;;;;1.60;1.50;;;5.90;99.90;;;;;;5055494;28;20205;-83
2022/12/28 04:29:29;;;;;;;1.93;1.77;;;5.90;99.90;;;;;;5058090;28;20196;-82
2022/12/28 04:31:57;;;;;;;1.70;1.60;;;5.90;99.90;;;;;;5055080;28;20873;-84
2022/12/28 04:34:25;;;;;;;3.83;1.70;;;6.00;99.90;;;;;;5057939;28;20502;-84
2022/12/28 04:36:53;;;;;;;2.00;1.60;;;6.00;99.90;;;;;;5054875;28;20525;-83
2022/12/28 04:39:21;;;;;;;1.90;1.40;;;6.00;99.90;;;;;;5059515;28;20962;-84
2022/12/28 04:41:51;;;;;;;1.50;1.40;;;6.00;81.20;;;;;;5058125;28;20513;-82
2022/12/28 04:44:19;;;;;;;1.70;1.60;;;6.10;82.20;;;;;;5050012;28;20549;-83
2022/12/28 04:46:47;;;;;;;1.40;1.30;;;6.10;73.30;;;;;;5054484;28;20462;-83
2022/12/28 04:49:16;;;;;;;1.40;1.30;;;6.20;11.00;;;;;;5054443;28;20448;-83
2022/12/28 04:51:44;;;;;;;1.70;1.60;;;6.10;1.00;;;;;;5052908;28;20471;-82
2022/12/28 04:54:13;;;;;;;2.50;1.37;;;6.20;1.00;;;;;;5047801;28;20458;-82
2022/12/28 04:56:41;;;;;;;1.20;1.20;;;6.20;1.00;;;;;;5059613;28;20471;-82
2022/12/28 04:59:11;;;;;;;2.30;1.63;;;6.30;1.00;;;;;;5054712;28;20598;-82
2022/12/28 05:01:39;;;;;;;1.80;1.53;;;6.30;1.00;;;;;;5044575;28;20483;-82
2022/12/28 05:04:07;;;;;;;1.43;1.33;;;6.20;1.00;;;;;;5052160;28;20551;-82
2022/12/28 05:06:35;;;;;;;1.60;1.40;;;6.30;1.00;;;;;;5054165;28;20463;-82
2022/12/28 05:09:04;;;;;;;1.60;1.50;;;6.30;1.00;;;;;;5053477;28;21366;-81
2022/12/28 05:11:32;;;;;;;1.57;1.20;;;6.30;1.00;;;;;;5048413;28;20543;-83
2022/12/28 05:14:00;;;;;;;1.73;1.63;;;6.30;1.00;;;;;;5055945;28;20458;-83
2022/12/28 05:16:30;;;;;;;1.30;1.20;;;6.30;1.00;;;;;;5050401;28;20529;-83
2022/12/28 05:18:58;;;;;;;1.45;1.35;;;6.40;1.00;;;;;;5051766;28;20987;-84
2022/12/28 05:21:28;;;;;;;2.60;1.40;;;6.30;1.00;;;;;;5039478;28;20223;-83
2022/12/28 05:23:56;;;;;;;3.57;1.60;;;6.30;1.00;;;;;;5052885;28;20816;-84
2022/12/28 05:26:26;;;;;;;2.20;1.40;;;6.30;1.00;;;;;;5056014;28;20474;-83
2022/12/28 05:28:58;;;;;;;1.55;1.45;;;6.30;1.00;;;;;;5056965;28;20454;-82
2022/12/28 05:31:27;;;;;;;1.40;1.30;;;6.30;1.00;;;;;;5054411;28;20256;-83
2022/12/28 05:33:57;;;;;;;1.73;1.40;;;6.30;1.00;;;;;;5050217;28;20888;-81
2022/12/28 05:36:26;;;;;;;1.30;1.20;;;6.30;1.00;;;;;;5053022;28;20497;-80
2022/12/28 05:38:56;;;;;;;1.70;1.60;;;6.30;99.90;;;;;;5050552;28;20464;-81
2022/12/28 05:41:25;;;;;;;1.20;1.20;;;6.20;99.90;;;;;;5055000;28;20470;-81
2022/12/28 05:43:54;;;;;;;1.40;1.30;;;6.20;99.90;;;;;;5062723;28;20951;-82
2022/12/28 05:46:25;;;;;;;1.97;1.87;;;6.20;86.20;;;;;;5050664;28;20455;-80
2022/12/28 05:48:55;;;;;;;1.50;1.40;;;6.20;99.90;;;;;;5051642;28;20467;-81
2022/12/28 05:51:26;;;;;;;1.50;1.40;;;6.20;99.90;;;;;;5054674;28;20480;-80
2022/12/28 05:53:54;;;;;;;1.40;1.30;;;6.20;99.90;;;;;;5057424;28;20458;-82
2022/12/28 05:56:25;;;;;;;1.53;1.30;;;6.30;6.00;;;;;;5056397;28;20463;-81
2022/12/28 05:58:55;;;;;;;1.40;1.30;;;6.20;99.90;;;;;;5056670;28;20451;-82
2022/12/28 06:01:26;;;;;;;1.43;1.33;;;6.30;99.90;;;;;;5062399;28;20476;-81
2022/12/28 06:03:56;;;;;;;2.03;1.50;;;6.30;99.90;;;;;;5059744;28;20557;-81
2022/12/28 06:06:27;;;;;;;1.30;1.20;;;6.20;99.90;;;;;;5058117;28;20519;-82
2022/12/28 06:08:55;;;;;;;1.30;1.20;;;6.10;99.90;;;;;;5060101;28;20454;-82
2022/12/28 06:11:27;;;;;;;1.40;1.30;;;6.20;99.90;;;;;;5056914;28;20859;-80
2022/12/28 06:13:55;;;;;;;1.37;1.27;;;6.20;99.90;;;;;;5049360;28;20466;-81
2022/12/28 06:16:25;;;;;;;2.07;1.97;;;6.10;1.00;;;;;;5051339;28;20506;-84
2022/12/28 06:18:53;;;;;;;1.40;1.30;;;6.10;1.00;;;;;;5050943;28;20447;-83
2022/12/28 06:21:23;;;;;;;1.70;1.60;;;6.00;1.00;;;;;;5056685;28;21063;-83
2022/12/28 06:23:56;;;;;;;1.40;1.30;;;6.20;1.00;;;;;;5047024;28;20490;-81
2022/12/28 06:26:25;;;;;;;1.57;1.47;;;6.20;99.90;;;;;;5055314;28;20967;-82
2022/12/28 06:28:54;;;;;;;2.08;1.83;;;6.20;1.00;;;;;;5054846;28;20461;-82
2022/12/28 06:31:23;;;;;;;4.65;1.40;;;6.10;1.00;;;;;;5055077;28;20252;-83
2022/12/28 06:33:53;;;;;;;2.30;1.67;;;6.20;99.90;;;;;;5054204;28;20730;-82
2022/12/28 06:36:23;;;;;;;1.67;1.20;;;6.20;1.00;;;;;;5054363;28;20498;-83
2022/12/28 06:38:53;;;;;;;2.50;1.40;;;6.20;1.00;;;;;;5051049;28;20507;-83
2022/12/28 06:41:22;;;;;;;2.20;1.30;;;6.30;99.90;;;;;;5054132;28;21049;-82
2022/12/28 06:43:51;;;;;;;1.57;1.27;;;6.40;99.90;;;;;;5051057;28;20510;-83
2022/12/28 06:46:20;;;;;;;1.80;1.70;;;6.30;99.90;;;;;;5059029;28;20490;-81
2022/12/28 06:48:49;;;;;;;2.17;1.93;;;6.40;99.90;;;;;;5052728;28;20821;-83
2022/12/28 06:51:19;;;;;;;2.38;1.50;;;6.40;99.90;;;;;;5050478;28;20538;-83
2022/12/28 06:53:49;;;;;;;1.50;1.40;;;6.40;99.90;;;;;;5048094;28;20703;-82
2022/12/28 06:56:21;;;;;;;2.13;1.92;;;6.40;99.90;;;;;;5059172;28;20526;-83
2022/12/28 06:58:50;;;;;;;1.90;1.70;;;6.30;99.90;;;;;;5059032;28;20204;-83
2022/12/28 07:01:28;;;;;;;1.90;1.80;;;6.30;99.90;;;;;;5053678;28;20514;-81
2022/12/28 07:03:58;;;;;;;1.43;1.33;;;6.40;99.90;;;;;;5059218;28;20676;-81
2022/12/28 07:06:28;;;;;;;1.40;1.30;;;6.30;99.90;;;;;;5048742;28;20479;-81
2022/12/28 07:09:01;;;;;;;1.83;1.60;;;6.30;99.90;;;;;;5055732;28;20447;-83
2022/12/28 07:11:30;;;;;;;2.70;1.97;;;6.30;99.90;;;;;;5062932;28;20497;-83
2022/12/28 07:13:59;;;;;;;1.70;1.57;;;6.40;99.90;;;;;;5065110;28;20455;-83
2022/12/28 07:16:28;;;;;;;1.80;1.70;;;6.40;99.90;;;;;;5059765;28;20820;-84
2022/12/28 07:18:59;;;;;;;1.50;1.40;;;6.30;99.90;;;;;;5055083;28;20199;-83
2022/12/28 07:21:29;;;;;;;1.97;1.77;;;6.30;99.90;;;;;;5059386;28;20531;-82
2022/12/28 07:23:58;;;;;;;1.90;1.80;;;6.20;99.90;;;;;;5055107;28;20474;-83
2022/12/28 07:26:28;;;;;;;1.80;1.70;;;6.20;99.90;;;;;;5060635;28;20454;-82
2022/12/28 07:28:59;;;;;;;1.50;1.40;;;6.30;99.90;;;;;;5060163;28;20459;-84
2022/12/28 07:31:30;;;;;;;2.03;1.83;;;6.20;99.90;;;;;;5051956;28;20490;-84
2022/12/28 07:33:59;;;;;;;1.90;1.40;;;6.40;99.90;;;;;;5055185;28;20462;-85
2022/12/28 07:36:30;;;;;;;1.60;1.50;;;6.30;99.90;;;;;;5053795;28;20262;-85
2022/12/28 07:38:59;;;;;;;3.67;2.00;;;6.30;99.90;;;;;;5043173;28;20470;-86
2022/12/28 07:41:29;;;;;;;3.72;2.75;;;6.30;99.90;;;;;;5041863;28;20476;-85
2022/12/28 07:43:58;;;;;;;2.10;1.87;;;6.30;99.90;;;;;;5049548;28;20296;-84
2022/12/28 07:46:28;;;;;;;4.67;2.47;;;6.40;99.90;;;;;;5046716;28;20443;-84
2022/12/28 07:48:57;;;;;;;2.63;2.40;;;6.40;99.90;;;;;;5045624;28;20482;-84
2022/12/28 07:51:27;;;;;;;1.83;1.73;;;6.40;99.90;;;;;;5057064;28;20470;-84
2022/12/28 07:53:56;;;;;;;2.07;1.63;;;6.40;99.90;;;;;;5052895;28;20436;-85
2022/12/28 07:56:25;;;;;;;1.70;1.60;;;6.40;99.90;;;;;;5049949;28;20550;-83
2022/12/28 07:58:56;;;;;;;3.03;2.45;;;6.40;99.90;;;;;;5050631;28;20200;-78
2022/12/28 08:01:26;;;;;;;3.43;3.10;;;6.40;99.90;;;;;;5051932;28;20225;-82
2022/12/28 08:03:57;;;;;;;2.93;2.37;;;6.40;99.90;;;;;;5048788;28;20479;-83
2022/12/28 08:06:27;;;;;;;12.90;5.93;;;6.40;99.90;;;;;;5048425;28;20458;-82
2022/12/28 08:08:57;;;;;;;5.93;2.87;;;6.50;99.90;;;;;;5057516;28;20447;-84
2022/12/28 08:11:40;;;;;;;2.53;2.00;;;6.50;3.50;;;;;;5055158;28;20487;-82
2022/12/28 08:14:22;;;;;;;1.60;1.50;;;6.60;1.00;;;;;;5056807;28;20438;-81
2022/12/28 08:16:52;;;;;;;1.60;1.50;;;6.60;1.00;;;;;;5060684;28;20463;-82
2022/12/28 08:19:20;;;;;;;1.60;1.50;;;6.70;1.00;;;;;;5055983;28;20443;-83
2022/12/28 08:21:48;;;;;;;2.57;1.90;;;6.70;1.00;;;;;;5055186;28;20478;-82
2022/12/28 08:24:18;;;;;;;2.00;1.90;;;6.80;1.00;;;;;;5053112;28;20483;-82
2022/12/28 08:26:48;;;;;;;2.00;1.60;;;6.80;1.00;;;;;;5047890;28;20455;-83
2022/12/28 08:29:19;;;;;;;1.60;1.50;;;6.80;1.00;;;;;;5057153;28;20538;-83
2022/12/28 08:31:47;;;;;;;2.10;1.70;;;6.80;1.00;;;;;;5054265;28;20506;-81
2022/12/28 08:34:19;;;;;;;2.60;1.80;;;6.80;1.00;;;;;;5052293;28;21028;-83
2022/12/28 08:36:47;;;;;;;2.50;1.67;;;6.80;1.00;;;;;;5056516;28;20531;-80
2022/12/28 08:39:15;;;;;;;3.10;1.77;;;6.90;1.00;;;;;;5056702;28;20465;-83
2022/12/28 08:41:44;;;;;;;2.03;1.93;;;6.90;1.00;;;;;;5059201;28;20567;-82
2022/12/28 08:44:12;;;;;;;2.30;1.83;;;7.00;1.00;;;;;;5058916;28;20477;-82
2022/12/28 08:46:40;;;;;;;1.97;1.40;;;6.90;1.00;;;;;;5054862;28;20489;-82
2022/12/28 08:49:08;;;;;;;1.77;1.67;;;6.90;1.00;;;;;;5053466;28;22266;-81
2022/12/28 08:51:40;;;;;;;1.53;1.43;;;6.90;1.00;;;;;;5055877;28;20904;-82
2022/12/28 08:54:09;;;;;;;2.13;1.50;;;7.00;1.00;;;;;;5052742;28;20991;-82
2022/12/28 08:56:39;;;;;;;1.87;1.77;;;7.00;1.00;;;;;;5054302;28;20517;-82
2022/12/28 08:59:07;;;;;;;2.30;1.70;;;6.90;1.00;;;;;;5060704;28;20458;-82
2022/12/28 09:01:38;;;;;;;1.57;1.47;;;7.00;99.90;;;;;;5058665;28;20483;-81
2022/12/28 09:04:13;;;;;;;1.20;1.10;;;7.10;99.90;;;;;;5069300;28;20471;-82
2022/12/28 09:06:43;;;;;;;1.57;1.10;;;7.10;99.90;;;;;;5048377;28;20465;-81
2022/12/28 09:09:14;;;;;;;1.50;1.30;;;7.10;1.00;;;;;;5048965;28;20466;-81
2022/12/28 09:11:43;;;;;;;2.27;1.30;;;7.20;99.90;;;;;;5053405;28;20475;-81
2022/12/28 09:14:13;;;;;;;1.67;1.47;;;7.20;99.90;;;;;;5054724;28;20455;-82
2022/12/28 09:16:50;;;;;;;1.27;1.27;;;7.30;99.90;;;;;;5055375;28;20487;-82
2022/12/28 09:19:18;;;;;;;1.83;1.60;;;7.30;99.90;;;;;;5048123;28;20448;-82
2022/12/28 09:21:51;;;;;;;2.57;1.33;;;7.30;99.90;;;;;;5050488;28;20569;-82
2022/12/28 09:24:19;;;;;;;1.43;1.33;;;7.40;99.90;;;;;;5057547;28;20480;-81
2022/12/28 09:26:51;;;;;;;1.47;1.37;;;7.40;99.90;;;;;;5049388;28;20447;-79
2022/12/28 09:29:19;;;;;;;1.63;1.20;;;7.40;99.90;;;;;;5046793;28;20480;-80
2022/12/28 09:31:47;;;;;;;1.60;1.50;;;7.40;99.90;;;;;;5044058;28;20530;-81
2022/12/28 09:34:15;;;;;;;2.40;1.40;;;7.40;99.90;;;;;;5041840;28;20466;-78
2022/12/28 09:37:05;;;;;;;1.30;1.20;;;7.50;99.90;;;;;;5036789;28;20463;-79
2022/12/28 09:39:34;;;;;;;1.40;1.30;;;7.50;99.90;;;;;;5042260;28;20503;-79
2022/12/28 09:42:06;;;;;;;1.77;1.40;;;7.40;99.90;;;;;;5044246;28;20530;-80
2022/12/28 09:44:48;;;;;;;1.20;1.10;;;7.50;99.90;;;;;;5039187;28;20472;-79
2022/12/28 09:47:23;;;;;;;1.30;1.30;;;7.50;99.90;;;;;;5053219;28;20448;-80
2022/12/28 09:50:07;;;;;;;1.27;1.20;;;7.60;99.90;;;;;;5044130;28;20457;-80
2022/12/28 09:52:43;;;;;;;1.67;1.27;;;7.60;99.90;;;;;;5047452;28;21294;-79
2022/12/28 09:55:18;;;;;;;1.63;1.20;;;7.60;99.90;;;;;;5048457;28;20539;-79
2022/12/28 09:57:50;;;;;;;1.20;1.10;;;7.60;99.90;;;;;;5055428;28;20536;-81
2022/12/28 10:00:21;;;;;;;1.10;1.10;;;7.80;99.90;;;;;;5042370;28;20574;-79
2022/12/28 10:02:55;;;;;;;1.10;1.10;;;7.90;99.90;;;;;;5041501;28;20530;-79
2022/12/28 10:05:23;;;;;;;1.30;1.20;;;8.00;99.90;;;;;;5041492;28;21029;-79
2022/12/28 10:07:54;;;;;;;1.40;1.30;;;8.00;93.10;;;;;;5047867;28;20443;-78
2022/12/28 10:10:24;;;;;;;1.40;1.30;;;8.10;56.00;;;;;;5044464;28;20469;-80
2022/12/28 10:12:52;;;;;;;2.17;1.40;;;8.00;74.70;;;;;;5047053;28;21495;-81
2022/12/28 10:15:25;;;;;;;2.10;1.50;;;8.00;89.10;;;;;;5043660;28;20491;-79
2022/12/28 10:17:53;;;;;;;1.30;1.20;;;8.00;99.90;;;;;;5046729;28;20455;-79
2022/12/28 10:20:22;;;;;;;2.83;1.23;;;8.00;99.90;;;;;;5053937;28;20476;-80
2022/12/28 10:22:55;;;;;;;1.30;1.20;;;8.10;99.90;;;;;;5059518;28;20455;-79
2022/12/28 10:25:26;;;;;;;1.43;1.30;;;8.20;52.60;;;;;;5048314;28;20579;-80
2022/12/28 10:27:55;;;;;;;1.20;1.10;;;8.30;52.70;;;;;;5045741;28;20466;-81
2022/12/28 10:30:26;;;;;;;1.47;1.37;;;8.30;20.60;;;;;;5037134;28;20469;-80
2022/12/28 10:32:56;;;;;;;1.33;1.23;;;8.40;1.00;;;;;;5047698;28;20460;-82
2022/12/28 10:35:42;;;;;;;1.60;1.50;;;8.40;1.00;;;;;;5046823;28;20507;-83
2022/12/28 10:38:22;;;;;;;1.50;1.40;;;8.60;1.00;;;;;;5037837;28;20475;-81
2022/12/28 10:41:00;;;;;;;1.17;1.17;;;8.60;1.00;;;;;;5032994;28;21064;-80
2022/12/28 10:43:31;;;;;;;1.13;1.13;;;8.60;1.00;;;;;;5039364;28;20779;-81
2022/12/28 10:46:00;;;;;;;1.53;1.27;;;8.80;1.00;;;;;;5042381;28;20492;-81
2022/12/28 10:48:32;;;;;;;1.50;1.40;;;8.90;1.00;;;;;;5051100;28;20971;-81
2022/12/28 10:51:10;;;;;;;1.73;1.40;;;8.80;1.00;;;;;;5043115;28;21019;-81
2022/12/28 10:53:44;;;;;;;1.17;1.17;;;8.70;1.00;;;;;;5046037;28;20948;-79
2022/12/28 10:56:22;;;;;;;2.87;2.67;;;8.50;1.00;;;;;;5047108;28;20458;-81
2022/12/28 10:58:52;;;;;;;1.17;1.13;;;8.60;1.00;;;;;;5045400;28;20456;-81
2022/12/28 11:01:25;;;;;;;1.13;1.13;;;8.80;1.00;;;;;;5046042;28;20470;-80
2022/12/28 11:04:04;;;;;;;4.83;1.40;;;8.80;1.00;;;;;;5044972;28;20504;-82
2022/12/28 11:06:34;;;;;;;1.13;1.13;;;8.80;1.00;;;;;;5034857;28;20798;-81
2022/12/28 11:09:15;;;;;;;1.60;1.50;;;8.80;1.00;;;;;;5048670;28;20458;-82
2022/12/28 11:11:46;;;;;;;1.40;1.30;;;8.80;1.00;;;;;;5047232;28;20536;-80
2022/12/28 11:14:26;;;;;;;1.20;1.20;;;8.80;1.00;;;;;;5047796;28;20453;-80
2022/12/28 11:16:54;;;;;;;1.90;1.30;;;8.80;1.00;;;;;;5044650;28;20459;-80
2022/12/28 11:19:24;;;;;;;1.40;1.30;;;8.70;1.00;;;;;;5038221;28;20565;-79
2022/12/28 11:21:53;;;;;;;1.50;1.40;;;8.60;1.00;;;;;;5049219;28;20467;-79
2022/12/28 11:24:26;;;;;;;1.30;1.20;;;8.60;1.00;;;;;;5049545;28;20463;-79
2022/12/28 11:26:55;;;;;;;0.97;0.97;;;8.60;1.00;;;;;;5053652;28;20469;-78
2022/12/28 11:29:23;;;;;;;1.47;1.20;;;8.60;1.00;;;;;;5049872;28;20458;-79
2022/12/28 11:31:58;;;;;;;1.20;1.10;;;8.60;1.00;;;;;;5050178;28;20551;-78
2022/12/28 11:34:30;;;;;;;1.43;1.30;;;8.60;1.00;;;;;;5051175;28;20951;-79
2022/12/28 11:36:59;;;;;;;3.70;1.40;;;8.60;1.00;;;;;;5043505;28;20468;-80
2022/12/28 11:39:41;;;;;;;1.50;1.10;;;8.60;1.00;;;;;;5046473;28;20464;-78
2022/12/28 11:42:09;;;;;;;1.40;1.30;;;8.60;1.00;;;;;;5051034;28;20487;-79
2022/12/28 11:44:58;;;;;;;1.40;1.30;;;8.50;1.00;;;;;;5055077;28;20925;-79
2022/12/28 11:47:32;;;;;;;1.30;1.20;;;8.60;1.00;;;;;;5052771;28;21166;-80
2022/12/28 11:50:38;;;;;;;1.40;1.30;;;8.50;1.00;;;;;;5054440;28;20446;-80
2022/12/28 11:53:21;;;;;;;1.47;1.30;;;8.60;1.00;;;;;;5032722;28;20482;-79
2022/12/28 11:56:15;;;;;;;1.37;1.27;;;8.80;1.00;;;;;;5049209;28;20881;-80
2022/12/28 11:58:47;;;;;;;1.80;1.20;;;9.10;1.00;;;;;;5043690;28;20478;-81
2022/12/28 12:01:41;;;;;;;1.63;1.30;;;9.30;1.00;;;;;;5049720;28;20553;-81
2022/12/28 12:04:41;;;;;;;1.53;1.30;;;9.30;1.00;;;;;;5044139;28;21104;-80
2022/12/28 12:07:42;;;;;;;1.77;1.30;;;9.50;1.00;;;;;;5041454;28;21012;-82
2022/12/28 12:10:35;;;;;;;1.20;1.20;;;9.60;1.00;;;;;;5046669;28;20454;-79
2022/12/28 12:13:43;;;;;;;1.33;1.27;;;9.40;1.00;;;;;;5039603;28;20536;-82
2022/12/28 12:16:24;;;;;;;1.10;1.10;;;9.30;1.00;;;;;;5047536;28;20789;-79
2022/12/28 12:18:55;;;;;;;1.13;1.10;;;9.40;1.00;;;;;;5047320;28;20476;-80
2022/12/28 12:21:31;;;;;;;1.43;1.33;;;9.50;1.00;;;;;;5043856;28;20488;-80
2022/12/28 12:24:10;;;;;;;2.57;1.63;;;9.50;1.00;;;;;;5048583;28;20780;-80
2022/12/28 12:26:44;;;;;;;1.63;1.30;;;9.60;1.00;;;;;;5046296;28;20470;-81
2022/12/28 12:29:17;;;;;;;4.63;1.40;;;9.60;1.00;;;;;;5039592;28;20452;-80
2022/12/28 12:31:50;;;;;;;1.33;1.20;;;9.60;1.00;;;;;;5045950;28;20548;-79
2022/12/28 12:34:26;;;;;;;1.73;1.50;;;9.70;1.00;;;;;;5046404;28;20561;-80
2022/12/28 12:37:16;;;;;;;1.50;1.40;;;9.40;1.00;;;;;;5042162;28;21104;-81
2022/12/28 12:40:01;;;;;;;2.63;1.57;;;9.30;1.00;;;;;;5039856;28;20448;-80
2022/12/28 12:42:40;;;;;;;2.60;1.30;;;9.50;1.00;;;;;;5033637;28;20553;-81
2022/12/28 12:45:22;;;;;;;1.30;1.30;;;9.40;1.00;;;;;;5043029;28;20457;-80
2022/12/28 12:48:12;;;;;;;1.40;1.30;;;9.30;1.00;;;;;;5044142;28;20462;-81
2022/12/28 12:51:10;;;;;;;3.67;1.40;;;9.40;1.00;;;;;;5046988;28;20493;-79
2022/12/28 12:53:54;;;;;;;1.37;1.10;;;9.30;1.00;;;;;;5042110;28;20458;-80
2022/12/28 12:56:34;;;;;;;2.13;1.60;;;9.40;1.00;;;;;;5045115;28;21073;-82
2022/12/28 12:59:18;;;;;;;2.60;1.50;;;9.30;1.00;;;;;;5043375;28;20513;-80
2022/12/28 13:01:57;;;;;;;1.77;1.67;;;9.20;1.00;;;;;;5039389;28;20477;-79
2022/12/28 13:04:29;;;;;;;2.00;1.40;;;9.30;1.00;;;;;;5044902;28;20479;-81
2022/12/28 13:07:00;;;;;;;1.40;1.30;;;9.30;1.00;;;;;;5044641;28;20500;-80
2022/12/28 13:09:30;;;;;;;1.80;1.70;;;9.20;1.00;;;;;;5045677;28;20539;-78
2022/12/28 13:12:00;;;;;;;1.50;1.40;;;9.20;1.00;;;;;;5039840;28;20552;-80
2022/12/28 13:14:29;;;;;;;3.70;1.40;;;9.20;1.00;;;;;;5041598;28;20472;-81
2022/12/28 13:17:00;;;;;;;1.90;1.70;;;9.10;1.00;;;;;;5039468;28;20499;-81
2022/12/28 13:19:29;;;;;;;3.50;1.40;;;9.10;1.00;;;;;;5049008;28;20466;-82
2022/12/28 13:21:58;;;;;;;1.53;1.30;;;9.10;1.00;;;;;;5044984;28;20485;-82
2022/12/28 13:24:28;;;;;;;3.60;2.23;;;9.20;1.00;;;;;;5041625;28;20469;-79
2022/12/28 13:26:58;;;;;;;1.50;1.40;;;9.20;1.00;;;;;;5044020;28;20473;-79
2022/12/28 13:29:31;;;;;;;2.87;1.53;;;9.30;1.00;;;;;;5043840;28;20444;-80
2022/12/28 13:32:00;;;;;;;1.77;1.40;;;9.20;1.00;;;;;;5037010;28;20567;-81
2022/12/28 13:34:32;;;;;;;1.80;1.70;;;9.10;1.00;;;;;;5046022;28;20467;-79
2022/12/28 13:37:02;;;;;;;1.70;1.60;;;9.10;1.00;;;;;;5041976;28;20462;-80
2022/12/28 13:39:32;;;;;;;3.00;1.57;;;9.10;1.00;;;;;;5040576;28;20560;-81
2022/12/28 13:42:14;;;;;;;1.40;1.40;;;9.20;1.00;;;;;;5058416;28;20835;-80
2022/12/28 13:44:45;;;;;;;1.70;1.60;;;9.10;1.00;;;;;;5043469;28;20468;-79
2022/12/28 13:47:21;;;;;;;2.80;1.40;;;9.10;1.00;;;;;;5044455;28;20467;-79
2022/12/28 13:49:55;;;;;;;2.43;1.60;;;9.00;1.00;;;;;;5049244;28;20218;-79
2022/12/28 13:52:30;;;;;;;1.60;1.50;;;9.10;1.00;;;;;;5049807;28;20456;-79
2022/12/28 13:55:03;;;;;;;1.80;1.70;;;9.10;1.00;;;;;;5047660;28;20523;-81
2022/12/28 13:57:34;;;;;;;1.60;1.50;;;9.00;1.00;;;;;;5049927;28;20455;-79